sensor_id;sensor_type;location;lat;lon;timestamp;P1;durP1;ratioP1;P2;durP2;ratioP2
4766;SDS011;2397;53.576;9.746;2023-04-25T00:01:40;11.53;;;5.00;;
4766;SDS011;2397;53.576;9.746;2023-04-25T00:04:06;10.83;;;4.57;;
4766;SDS011;2397;53.576;9.746;2023-04-25T00:06:34;13.90;;;7.43;;
4766;SDS011;2397;53.576;9.746;2023-04-25T00:09:03;16.70;;;6.10;;
4766;SDS011;2397;53.576;9.746;2023-04-25T00:11:33;19.30;;;5.40;;
4766;SDS011;2397;53.576;9.746;2023-04-25T00:14:00;11.17;;;6.13;;
4766;SDS011;2397;53.576;9.746;2023-04-25T00:16:28;16.30;;;5.70;;
4766;SDS011;2397;53.576;9.746;2023-04-25T00:18:56;12.57;;;4.70;;
4766;SDS011;2397;53.576;9.746;2023-04-25T00:21:24;19.80;;;5.87;;
4766;SDS011;2397;53.576;9.746;2023-04-25T00:23:52;15.27;;;4.03;;
4766;SDS011;2397;53.576;9.746;2023-04-25T00:26:19;17.60;;;4.93;;
4766;SDS011;2397;53.576;9.746;2023-04-25T00:28:47;16.63;;;5.60;;
4766;SDS011;2397;53.576;9.746;2023-04-25T00:31:14;19.10;;;4.63;;
4766;SDS011;2397;53.576;9.746;2023-04-25T00:33:41;14.87;;;4.27;;
4766;SDS011;2397;53.576;9.746;2023-04-25T00:36:07;23.40;;;4.80;;
4766;SDS011;2397;53.576;9.746;2023-04-25T00:38:35;30.20;;;6.50;;
4766;SDS011;2397;53.576;9.746;2023-04-25T00:41:02;13.23;;;4.27;;
4766;SDS011;2397;53.576;9.746;2023-04-25T00:43:28;21.50;;;4.93;;
4766;SDS011;2397;53.576;9.746;2023-04-25T00:45:56;13.80;;;4.60;;
4766;SDS011;2397;53.576;9.746;2023-04-25T00:48:23;15.37;;;4.60;;
4766;SDS011;2397;53.576;9.746;2023-04-25T00:50:51;15.27;;;4.40;;
4766;SDS011;2397;53.576;9.746;2023-04-25T00:53:23;34.10;;;6.30;;
4766;SDS011;2397;53.576;9.746;2023-04-25T00:55:52;18.53;;;4.43;;
4766;SDS011;2397;53.576;9.746;2023-04-25T00:58:20;18.13;;;4.67;;
4766;SDS011;2397;53.576;9.746;2023-04-25T01:00:49;13.40;;;4.10;;
4766;SDS011;2397;53.576;9.746;2023-04-25T01:03:18;18.67;;;4.50;;
4766;SDS011;2397;53.576;9.746;2023-04-25T01:05:48;25.30;;;6.40;;
4766;SDS011;2397;53.576;9.746;2023-04-25T01:08:15;10.37;;;4.30;;
4766;SDS011;2397;53.576;9.746;2023-04-25T01:10:41;19.27;;;5.00;;
4766;SDS011;2397;53.576;9.746;2023-04-25T01:13:08;14.50;;;4.97;;
4766;SDS011;2397;53.576;9.746;2023-04-25T01:15:35;10.90;;;5.70;;
4766;SDS011;2397;53.576;9.746;2023-04-25T01:18:03;18.13;;;5.13;;
4766;SDS011;2397;53.576;9.746;2023-04-25T01:20:32;26.03;;;5.30;;
4766;SDS011;2397;53.576;9.746;2023-04-25T01:22:59;22.90;;;4.90;;
4766;SDS011;2397;53.576;9.746;2023-04-25T01:25:26;24.03;;;7.40;;
4766;SDS011;2397;53.576;9.746;2023-04-25T01:27:53;22.00;;;5.60;;
4766;SDS011;2397;53.576;9.746;2023-04-25T01:30:20;18.37;;;4.50;;
4766;SDS011;2397;53.576;9.746;2023-04-25T01:32:46;30.17;;;7.93;;
4766;SDS011;2397;53.576;9.746;2023-04-25T01:35:14;14.80;;;5.10;;
4766;SDS011;2397;53.576;9.746;2023-04-25T01:37:41;18.93;;;4.90;;
4766;SDS011;2397;53.576;9.746;2023-04-25T01:40:11;16.03;;;4.60;;
4766;SDS011;2397;53.576;9.746;2023-04-25T01:42:39;29.13;;;5.70;;
4766;SDS011;2397;53.576;9.746;2023-04-25T01:45:07;20.57;;;4.97;;
4766;SDS011;2397;53.576;9.746;2023-04-25T01:47:35;15.30;;;4.57;;
4766;SDS011;2397;53.576;9.746;2023-04-25T01:50:02;18.87;;;5.03;;
4766;SDS011;2397;53.576;9.746;2023-04-25T01:52:30;23.70;;;4.80;;
4766;SDS011;2397;53.576;9.746;2023-04-25T01:54:57;30.57;;;5.23;;
4766;SDS011;2397;53.576;9.746;2023-04-25T01:57:29;23.23;;;5.20;;
4766;SDS011;2397;53.576;9.746;2023-04-25T01:59:59;25.70;;;5.27;;
4766;SDS011;2397;53.576;9.746;2023-04-25T02:02:38;27.50;;;5.03;;
4766;SDS011;2397;53.576;9.746;2023-04-25T02:05:15;12.53;;;3.90;;
4766;SDS011;2397;53.576;9.746;2023-04-25T02:07:42;28.07;;;5.47;;
4766;SDS011;2397;53.576;9.746;2023-04-25T02:10:09;26.10;;;4.20;;
4766;SDS011;2397;53.576;9.746;2023-04-25T02:12:48;10.03;;;4.00;;
4766;SDS011;2397;53.576;9.746;2023-04-25T02:15:53;17.90;;;4.73;;
4766;SDS011;2397;53.576;9.746;2023-04-25T02:18:19;9.27;;;3.87;;
4766;SDS011;2397;53.576;9.746;2023-04-25T02:20:47;20.67;;;4.93;;
4766;SDS011;2397;53.576;9.746;2023-04-25T02:23:14;10.77;;;3.73;;
4766;SDS011;2397;53.576;9.746;2023-04-25T02:25:45;22.47;;;4.30;;
4766;SDS011;2397;53.576;9.746;2023-04-25T02:28:12;16.00;;;4.10;;
4766;SDS011;2397;53.576;9.746;2023-04-25T02:30:39;14.00;;;3.80;;
4766;SDS011;2397;53.576;9.746;2023-04-25T02:33:05;12.57;;;3.50;;
4766;SDS011;2397;53.576;9.746;2023-04-25T02:35:32;18.67;;;4.47;;
4766;SDS011;2397;53.576;9.746;2023-04-25T02:37:58;8.80;;;4.23;;
4766;SDS011;2397;53.576;9.746;2023-04-25T02:40:25;23.90;;;4.13;;
4766;SDS011;2397;53.576;9.746;2023-04-25T02:42:53;12.70;;;3.90;;
4766;SDS011;2397;53.576;9.746;2023-04-25T02:45:19;9.27;;;3.50;;
4766;SDS011;2397;53.576;9.746;2023-04-25T02:47:46;21.53;;;4.60;;
4766;SDS011;2397;53.576;9.746;2023-04-25T02:50:12;11.23;;;4.43;;
4766;SDS011;2397;53.576;9.746;2023-04-25T02:52:39;15.63;;;4.77;;
4766;SDS011;2397;53.576;9.746;2023-04-25T02:55:16;13.13;;;3.73;;
4766;SDS011;2397;53.576;9.746;2023-04-25T02:57:43;6.77;;;3.33;;
4766;SDS011;2397;53.576;9.746;2023-04-25T03:00:14;23.33;;;7.53;;
4766;SDS011;2397;53.576;9.746;2023-04-25T03:02:41;16.17;;;3.43;;
4766;SDS011;2397;53.576;9.746;2023-04-25T03:05:07;15.87;;;4.20;;
4766;SDS011;2397;53.576;9.746;2023-04-25T03:07:35;14.47;;;3.50;;
4766;SDS011;2397;53.576;9.746;2023-04-25T03:10:02;12.03;;;3.57;;
4766;SDS011;2397;53.576;9.746;2023-04-25T03:12:31;9.50;;;3.10;;
4766;SDS011;2397;53.576;9.746;2023-04-25T03:14:57;15.30;;;4.20;;
4766;SDS011;2397;53.576;9.746;2023-04-25T03:17:24;15.83;;;3.30;;
4766;SDS011;2397;53.576;9.746;2023-04-25T03:19:50;7.77;;;3.37;;
4766;SDS011;2397;53.576;9.746;2023-04-25T03:22:17;13.90;;;4.03;;
4766;SDS011;2397;53.576;9.746;2023-04-25T03:24:43;20.97;;;3.93;;
4766;SDS011;2397;53.576;9.746;2023-04-25T03:27:10;12.87;;;4.70;;
4766;SDS011;2397;53.576;9.746;2023-04-25T03:29:37;16.53;;;4.23;;
4766;SDS011;2397;53.576;9.746;2023-04-25T03:32:04;12.37;;;4.00;;
4766;SDS011;2397;53.576;9.746;2023-04-25T03:34:31;27.03;;;5.40;;
4766;SDS011;2397;53.576;9.746;2023-04-25T03:36:58;8.87;;;2.83;;
4766;SDS011;2397;53.576;9.746;2023-04-25T03:39:26;15.90;;;3.53;;
4766;SDS011;2397;53.576;9.746;2023-04-25T03:41:54;9.87;;;3.70;;
4766;SDS011;2397;53.576;9.746;2023-04-25T03:44:21;10.03;;;4.07;;
4766;SDS011;2397;53.576;9.746;2023-04-25T03:46:48;12.00;;;3.57;;
4766;SDS011;2397;53.576;9.746;2023-04-25T03:49:14;14.73;;;3.73;;
4766;SDS011;2397;53.576;9.746;2023-04-25T03:52:01;11.13;;;3.90;;
4766;SDS011;2397;53.576;9.746;2023-04-25T03:54:33;13.87;;;3.77;;
4766;SDS011;2397;53.576;9.746;2023-04-25T03:57:07;14.93;;;2.97;;
4766;SDS011;2397;53.576;9.746;2023-04-25T03:59:37;13.80;;;3.07;;
4766;SDS011;2397;53.576;9.746;2023-04-25T04:02:04;9.33;;;3.23;;
4766;SDS011;2397;53.576;9.746;2023-04-25T04:04:33;11.67;;;3.10;;
4766;SDS011;2397;53.576;9.746;2023-04-25T04:07:00;9.23;;;3.33;;
4766;SDS011;2397;53.576;9.746;2023-04-25T04:09:30;11.87;;;2.97;;
4766;SDS011;2397;53.576;9.746;2023-04-25T04:11:59;9.83;;;3.63;;
4766;SDS011;2397;53.576;9.746;2023-04-25T04:14:25;11.03;;;3.93;;
4766;SDS011;2397;53.576;9.746;2023-04-25T04:16:53;9.77;;;2.83;;
4766;SDS011;2397;53.576;9.746;2023-04-25T04:19:20;13.60;;;3.67;;
4766;SDS011;2397;53.576;9.746;2023-04-25T04:21:55;10.03;;;3.30;;
4766;SDS011;2397;53.576;9.746;2023-04-25T04:24:22;11.40;;;3.87;;
4766;SDS011;2397;53.576;9.746;2023-04-25T04:26:54;13.07;;;4.13;;
4766;SDS011;2397;53.576;9.746;2023-04-25T04:29:29;12.63;;;3.80;;
4766;SDS011;2397;53.576;9.746;2023-04-25T04:31:59;17.10;;;3.80;;
4766;SDS011;2397;53.576;9.746;2023-04-25T04:34:30;10.67;;;3.83;;
4766;SDS011;2397;53.576;9.746;2023-04-25T04:36:57;9.30;;;3.90;;
4766;SDS011;2397;53.576;9.746;2023-04-25T04:39:24;13.70;;;3.40;;
4766;SDS011;2397;53.576;9.746;2023-04-25T04:42:01;10.13;;;3.80;;
4766;SDS011;2397;53.576;9.746;2023-04-25T04:44:48;13.77;;;3.00;;
4766;SDS011;2397;53.576;9.746;2023-04-25T04:47:29;14.50;;;3.63;;
4766;SDS011;2397;53.576;9.746;2023-04-25T04:50:10;11.80;;;3.57;;
4766;SDS011;2397;53.576;9.746;2023-04-25T04:52:55;17.63;;;3.77;;
4766;SDS011;2397;53.576;9.746;2023-04-25T04:55:40;9.97;;;3.67;;
4766;SDS011;2397;53.576;9.746;2023-04-25T04:58:21;14.23;;;3.13;;
4766;SDS011;2397;53.576;9.746;2023-04-25T05:01:01;13.20;;;3.57;;
4766;SDS011;2397;53.576;9.746;2023-04-25T05:03:32;10.87;;;3.30;;
4766;SDS011;2397;53.576;9.746;2023-04-25T05:06:00;18.60;;;3.87;;
4766;SDS011;2397;53.576;9.746;2023-04-25T05:08:34;10.20;;;3.80;;
4766;SDS011;2397;53.576;9.746;2023-04-25T05:11:19;15.53;;;3.27;;
4766;SDS011;2397;53.576;9.746;2023-04-25T05:14:06;13.37;;;3.47;;
4766;SDS011;2397;53.576;9.746;2023-04-25T05:16:46;13.57;;;3.87;;
4766;SDS011;2397;53.576;9.746;2023-04-25T05:19:29;10.67;;;3.67;;
4766;SDS011;2397;53.576;9.746;2023-04-25T05:22:14;15.50;;;3.73;;
4766;SDS011;2397;53.576;9.746;2023-04-25T05:24:59;7.87;;;2.93;;
4766;SDS011;2397;53.576;9.746;2023-04-25T05:27:49;19.90;;;3.67;;
4766;SDS011;2397;53.576;9.746;2023-04-25T05:30:27;9.77;;;3.13;;
4766;SDS011;2397;53.576;9.746;2023-04-25T05:33:10;8.17;;;3.43;;
4766;SDS011;2397;53.576;9.746;2023-04-25T05:35:37;11.33;;;2.70;;
4766;SDS011;2397;53.576;9.746;2023-04-25T05:38:04;14.50;;;3.10;;
4766;SDS011;2397;53.576;9.746;2023-04-25T05:40:54;10.93;;;4.17;;
4766;SDS011;2397;53.576;9.746;2023-04-25T05:43:42;12.30;;;3.50;;
4766;SDS011;2397;53.576;9.746;2023-04-25T05:46:36;15.83;;;3.73;;
4766;SDS011;2397;53.576;9.746;2023-04-25T05:49:24;9.30;;;3.80;;
4766;SDS011;2397;53.576;9.746;2023-04-25T05:52:18;9.23;;;3.03;;
4766;SDS011;2397;53.576;9.746;2023-04-25T05:55:01;16.03;;;3.50;;
4766;SDS011;2397;53.576;9.746;2023-04-25T05:57:29;13.60;;;3.03;;
4766;SDS011;2397;53.576;9.746;2023-04-25T05:59:55;9.30;;;3.20;;
4766;SDS011;2397;53.576;9.746;2023-04-25T06:02:38;12.13;;;3.70;;
4766;SDS011;2397;53.576;9.746;2023-04-25T06:05:05;8.17;;;3.30;;
4766;SDS011;2397;53.576;9.746;2023-04-25T06:07:33;12.43;;;3.50;;
4766;SDS011;2397;53.576;9.746;2023-04-25T06:10:01;12.90;;;3.17;;
4766;SDS011;2397;53.576;9.746;2023-04-25T06:12:27;19.57;;;3.50;;
4766;SDS011;2397;53.576;9.746;2023-04-25T06:14:54;15.40;;;3.30;;
4766;SDS011;2397;53.576;9.746;2023-04-25T06:17:21;10.67;;;2.80;;
4766;SDS011;2397;53.576;9.746;2023-04-25T06:19:49;9.63;;;2.70;;
4766;SDS011;2397;53.576;9.746;2023-04-25T06:22:16;10.60;;;4.03;;
4766;SDS011;2397;53.576;9.746;2023-04-25T06:24:42;7.13;;;2.83;;
4766;SDS011;2397;53.576;9.746;2023-04-25T06:27:09;14.00;;;3.03;;
4766;SDS011;2397;53.576;9.746;2023-04-25T06:29:36;7.07;;;3.00;;
4766;SDS011;2397;53.576;9.746;2023-04-25T06:32:02;5.30;;;2.73;;
4766;SDS011;2397;53.576;9.746;2023-04-25T06:34:29;7.97;;;3.40;;
4766;SDS011;2397;53.576;9.746;2023-04-25T06:36:56;15.57;;;2.83;;
4766;SDS011;2397;53.576;9.746;2023-04-25T06:39:22;9.93;;;2.67;;
4766;SDS011;2397;53.576;9.746;2023-04-25T06:41:50;4.20;;;3.03;;
4766;SDS011;2397;53.576;9.746;2023-04-25T06:44:39;11.03;;;3.40;;
4766;SDS011;2397;53.576;9.746;2023-04-25T06:47:08;10.13;;;3.13;;
4766;SDS011;2397;53.576;9.746;2023-04-25T06:49:34;14.70;;;3.47;;
4766;SDS011;2397;53.576;9.746;2023-04-25T06:52:01;8.57;;;3.07;;
4766;SDS011;2397;53.576;9.746;2023-04-25T06:54:28;7.33;;;2.80;;
4766;SDS011;2397;53.576;9.746;2023-04-25T06:57:04;13.60;;;2.70;;
4766;SDS011;2397;53.576;9.746;2023-04-25T06:59:31;12.83;;;3.83;;
4766;SDS011;2397;53.576;9.746;2023-04-25T07:01:59;7.40;;;2.63;;
4766;SDS011;2397;53.576;9.746;2023-04-25T07:04:25;9.20;;;2.67;;
4766;SDS011;2397;53.576;9.746;2023-04-25T07:06:55;15.60;;;2.80;;
4766;SDS011;2397;53.576;9.746;2023-04-25T07:09:29;7.00;;;2.60;;
4766;SDS011;2397;53.576;9.746;2023-04-25T07:11:56;5.70;;;2.20;;
4766;SDS011;2397;53.576;9.746;2023-04-25T07:14:22;12.83;;;3.40;;
4766;SDS011;2397;53.576;9.746;2023-04-25T07:16:49;3.00;;;2.10;;
4766;SDS011;2397;53.576;9.746;2023-04-25T07:19:16;9.97;;;2.47;;
4766;SDS011;2397;53.576;9.746;2023-04-25T07:21:42;9.13;;;2.30;;
4766;SDS011;2397;53.576;9.746;2023-04-25T07:24:10;6.00;;;2.20;;
4766;SDS011;2397;53.576;9.746;2023-04-25T07:26:40;5.53;;;2.63;;
4766;SDS011;2397;53.576;9.746;2023-04-25T07:29:20;4.87;;;2.73;;
4766;SDS011;2397;53.576;9.746;2023-04-25T07:31:46;6.03;;;2.60;;
4766;SDS011;2397;53.576;9.746;2023-04-25T07:34:13;5.53;;;2.27;;
4766;SDS011;2397;53.576;9.746;2023-04-25T07:36:39;7.13;;;2.57;;
4766;SDS011;2397;53.576;9.746;2023-04-25T07:39:06;2.97;;;1.70;;
4766;SDS011;2397;53.576;9.746;2023-04-25T07:41:35;4.97;;;2.27;;
4766;SDS011;2397;53.576;9.746;2023-04-25T07:44:02;7.77;;;2.50;;
4766;SDS011;2397;53.576;9.746;2023-04-25T07:46:30;8.90;;;3.70;;
4766;SDS011;2397;53.576;9.746;2023-04-25T07:48:57;5.53;;;2.50;;
4766;SDS011;2397;53.576;9.746;2023-04-25T07:51:23;9.07;;;2.53;;
4766;SDS011;2397;53.576;9.746;2023-04-25T07:53:52;5.70;;;1.93;;
4766;SDS011;2397;53.576;9.746;2023-04-25T07:56:20;3.77;;;2.10;;
4766;SDS011;2397;53.576;9.746;2023-04-25T07:58:47;8.20;;;2.10;;
4766;SDS011;2397;53.576;9.746;2023-04-25T08:01:15;11.70;;;3.03;;
4766;SDS011;2397;53.576;9.746;2023-04-25T08:03:48;5.40;;;1.87;;
4766;SDS011;2397;53.576;9.746;2023-04-25T08:06:21;11.60;;;2.73;;
4766;SDS011;2397;53.576;9.746;2023-04-25T08:09:03;6.80;;;2.67;;
4766;SDS011;2397;53.576;9.746;2023-04-25T08:11:36;9.87;;;2.03;;
4766;SDS011;2397;53.576;9.746;2023-04-25T08:14:03;5.90;;;2.47;;
4766;SDS011;2397;53.576;9.746;2023-04-25T08:16:30;3.57;;;1.70;;
4766;SDS011;2397;53.576;9.746;2023-04-25T08:18:57;3.30;;;2.57;;
4766;SDS011;2397;53.576;9.746;2023-04-25T08:21:23;7.10;;;2.20;;
4766;SDS011;2397;53.576;9.746;2023-04-25T08:23:52;5.97;;;2.50;;
4766;SDS011;2397;53.576;9.746;2023-04-25T08:26:24;7.10;;;2.80;;
4766;SDS011;2397;53.576;9.746;2023-04-25T08:28:51;5.33;;;2.07;;
4766;SDS011;2397;53.576;9.746;2023-04-25T08:31:18;8.17;;;2.20;;
4766;SDS011;2397;53.576;9.746;2023-04-25T08:33:54;4.43;;;1.73;;
4766;SDS011;2397;53.576;9.746;2023-04-25T08:36:30;5.93;;;1.90;;
4766;SDS011;2397;53.576;9.746;2023-04-25T08:39:17;3.13;;;2.27;;
4766;SDS011;2397;53.576;9.746;2023-04-25T08:42:00;6.53;;;2.33;;
4766;SDS011;2397;53.576;9.746;2023-04-25T08:44:29;8.40;;;1.97;;
4766;SDS011;2397;53.576;9.746;2023-04-25T08:46:56;3.53;;;1.63;;
4766;SDS011;2397;53.576;9.746;2023-04-25T08:49:27;7.10;;;1.90;;
4766;SDS011;2397;53.576;9.746;2023-04-25T08:51:55;8.93;;;1.87;;
4766;SDS011;2397;53.576;9.746;2023-04-25T08:54:26;7.17;;;2.03;;
4766;SDS011;2397;53.576;9.746;2023-04-25T08:57:02;2.47;;;1.40;;
4766;SDS011;2397;53.576;9.746;2023-04-25T08:59:31;8.13;;;1.73;;
4766;SDS011;2397;53.576;9.746;2023-04-25T09:02:00;2.80;;;2.00;;
4766;SDS011;2397;53.576;9.746;2023-04-25T09:04:29;6.87;;;2.00;;
4766;SDS011;2397;53.576;9.746;2023-04-25T09:06:57;4.23;;;1.80;;
4766;SDS011;2397;53.576;9.746;2023-04-25T09:09:25;8.50;;;2.00;;
4766;SDS011;2397;53.576;9.746;2023-04-25T09:11:51;5.07;;;2.40;;
4766;SDS011;2397;53.576;9.746;2023-04-25T09:14:22;19.70;;;3.20;;
4766;SDS011;2397;53.576;9.746;2023-04-25T09:17:19;10.53;;;2.07;;
4766;SDS011;2397;53.576;9.746;2023-04-25T09:19:48;7.17;;;2.30;;
4766;SDS011;2397;53.576;9.746;2023-04-25T09:22:26;11.07;;;3.37;;
4766;SDS011;2397;53.576;9.746;2023-04-25T09:24:53;8.50;;;2.17;;
4766;SDS011;2397;53.576;9.746;2023-04-25T09:27:23;7.50;;;2.00;;
4766;SDS011;2397;53.576;9.746;2023-04-25T09:29:57;3.90;;;1.73;;
4766;SDS011;2397;53.576;9.746;2023-04-25T09:32:37;6.97;;;2.03;;
4766;SDS011;2397;53.576;9.746;2023-04-25T09:35:04;7.60;;;1.80;;
4766;SDS011;2397;53.576;9.746;2023-04-25T09:37:31;7.87;;;2.13;;
4766;SDS011;2397;53.576;9.746;2023-04-25T09:40:24;3.00;;;2.10;;
4766;SDS011;2397;53.576;9.746;2023-04-25T09:42:57;7.03;;;1.80;;
4766;SDS011;2397;53.576;9.746;2023-04-25T09:45:25;4.20;;;1.57;;
4766;SDS011;2397;53.576;9.746;2023-04-25T09:47:55;5.67;;;2.00;;
4766;SDS011;2397;53.576;9.746;2023-04-25T09:50:30;3.63;;;1.93;;
4766;SDS011;2397;53.576;9.746;2023-04-25T09:53:04;9.50;;;2.73;;
4766;SDS011;2397;53.576;9.746;2023-04-25T09:55:48;9.90;;;2.33;;
4766;SDS011;2397;53.576;9.746;2023-04-25T09:58:14;5.63;;;2.67;;
4766;SDS011;2397;53.576;9.746;2023-04-25T10:00:41;10.10;;;2.37;;
4766;SDS011;2397;53.576;9.746;2023-04-25T10:03:21;6.77;;;2.50;;
4766;SDS011;2397;53.576;9.746;2023-04-25T10:06:14;7.20;;;2.50;;
4766;SDS011;2397;53.576;9.746;2023-04-25T10:08:49;4.07;;;2.27;;
4766;SDS011;2397;53.576;9.746;2023-04-25T10:11:17;7.07;;;1.70;;
4766;SDS011;2397;53.576;9.746;2023-04-25T10:13:44;5.27;;;2.40;;
4766;SDS011;2397;53.576;9.746;2023-04-25T10:16:12;4.53;;;2.33;;
4766;SDS011;2397;53.576;9.746;2023-04-25T10:18:39;5.43;;;2.83;;
4766;SDS011;2397;53.576;9.746;2023-04-25T10:21:05;5.27;;;1.70;;
4766;SDS011;2397;53.576;9.746;2023-04-25T10:23:33;4.97;;;2.10;;
4766;SDS011;2397;53.576;9.746;2023-04-25T10:26:00;10.13;;;2.50;;
4766;SDS011;2397;53.576;9.746;2023-04-25T10:28:28;3.60;;;1.87;;
4766;SDS011;2397;53.576;9.746;2023-04-25T10:33:37;3.77;;;1.63;;
4766;SDS011;2397;53.576;9.746;2023-04-25T10:36:09;5.20;;;2.00;;
4766;SDS011;2397;53.576;9.746;2023-04-25T10:38:36;2.67;;;1.57;;
4766;SDS011;2397;53.576;9.746;2023-04-25T10:41:08;7.07;;;2.23;;
4766;SDS011;2397;53.576;9.746;2023-04-25T10:43:45;6.10;;;2.07;;
4766;SDS011;2397;53.576;9.746;2023-04-25T10:48:49;4.43;;;2.17;;
4766;SDS011;2397;53.576;9.746;2023-04-25T10:51:21;6.20;;;2.00;;
4766;SDS011;2397;53.576;9.746;2023-04-25T10:53:58;8.67;;;2.40;;
4766;SDS011;2397;53.576;9.746;2023-04-25T10:56:41;4.90;;;1.80;;
4766;SDS011;2397;53.576;9.746;2023-04-25T10:59:11;9.53;;;2.30;;
4766;SDS011;2397;53.576;9.746;2023-04-25T11:01:43;6.20;;;2.07;;
4766;SDS011;2397;53.576;9.746;2023-04-25T11:04:20;2.73;;;1.97;;
4766;SDS011;2397;53.576;9.746;2023-04-25T11:09:33;4.80;;;2.07;;
4766;SDS011;2397;53.576;9.746;2023-04-25T11:12:04;9.53;;;2.17;;
4766;SDS011;2397;53.576;9.746;2023-04-25T11:14:33;3.43;;;1.63;;
4766;SDS011;2397;53.576;9.746;2023-04-25T11:17:00;9.03;;;2.00;;
4766;SDS011;2397;53.576;9.746;2023-04-25T11:19:29;2.37;;;1.70;;
4766;SDS011;2397;53.576;9.746;2023-04-25T11:21:56;7.00;;;2.23;;
4766;SDS011;2397;53.576;9.746;2023-04-25T11:24:27;3.97;;;2.03;;
4766;SDS011;2397;53.576;9.746;2023-04-25T11:26:55;2.87;;;1.60;;
4766;SDS011;2397;53.576;9.746;2023-04-25T11:29:23;2.30;;;1.33;;
4766;SDS011;2397;53.576;9.746;2023-04-25T11:31:50;5.43;;;1.80;;
4766;SDS011;2397;53.576;9.746;2023-04-25T11:34:17;4.47;;;1.40;;
4766;SDS011;2397;53.576;9.746;2023-04-25T11:36:45;4.40;;;1.53;;
4766;SDS011;2397;53.576;9.746;2023-04-25T11:39:12;2.70;;;1.40;;
4766;SDS011;2397;53.576;9.746;2023-04-25T11:41:40;4.90;;;1.60;;
4766;SDS011;2397;53.576;9.746;2023-04-25T11:44:08;8.00;;;2.30;;
4766;SDS011;2397;53.576;9.746;2023-04-25T11:46:34;6.20;;;1.70;;
4766;SDS011;2397;53.576;9.746;2023-04-25T11:49:01;7.67;;;2.40;;
4766;SDS011;2397;53.576;9.746;2023-04-25T11:51:29;4.37;;;1.97;;
4766;SDS011;2397;53.576;9.746;2023-04-25T11:53:56;5.90;;;1.80;;
4766;SDS011;2397;53.576;9.746;2023-04-25T11:56:23;8.27;;;2.40;;
4766;SDS011;2397;53.576;9.746;2023-04-25T11:58:59;4.47;;;1.83;;
4766;SDS011;2397;53.576;9.746;2023-04-25T12:01:31;7.30;;;1.77;;
4766;SDS011;2397;53.576;9.746;2023-04-25T12:04:12;9.97;;;2.67;;
4766;SDS011;2397;53.576;9.746;2023-04-25T12:06:50;2.40;;;1.43;;
4766;SDS011;2397;53.576;9.746;2023-04-25T12:09:19;5.33;;;3.07;;
4766;SDS011;2397;53.576;9.746;2023-04-25T12:11:48;4.80;;;1.97;;
4766;SDS011;2397;53.576;9.746;2023-04-25T12:14:26;3.83;;;2.00;;
4766;SDS011;2397;53.576;9.746;2023-04-25T12:16:55;3.90;;;1.43;;
4766;SDS011;2397;53.576;9.746;2023-04-25T12:19:31;8.80;;;2.40;;
4766;SDS011;2397;53.576;9.746;2023-04-25T12:22:00;5.60;;;1.77;;
4766;SDS011;2397;53.576;9.746;2023-04-25T12:24:29;7.87;;;2.20;;
4766;SDS011;2397;53.576;9.746;2023-04-25T12:27:00;6.70;;;1.50;;
4766;SDS011;2397;53.576;9.746;2023-04-25T12:29:29;1.83;;;1.13;;
4766;SDS011;2397;53.576;9.746;2023-04-25T12:32:13;4.90;;;1.43;;
4766;SDS011;2397;53.576;9.746;2023-04-25T12:34:40;7.20;;;1.80;;
4766;SDS011;2397;53.576;9.746;2023-04-25T12:37:06;2.70;;;2.50;;
4766;SDS011;2397;53.576;9.746;2023-04-25T12:39:33;4.97;;;2.10;;
4766;SDS011;2397;53.576;9.746;2023-04-25T12:41:59;9.60;;;2.30;;
4766;SDS011;2397;53.576;9.746;2023-04-25T12:44:26;4.07;;;2.67;;
4766;SDS011;2397;53.576;9.746;2023-04-25T12:46:52;3.87;;;2.00;;
4766;SDS011;2397;53.576;9.746;2023-04-25T12:49:20;3.73;;;1.40;;
4766;SDS011;2397;53.576;9.746;2023-04-25T12:51:47;7.60;;;2.27;;
4766;SDS011;2397;53.576;9.746;2023-04-25T12:54:13;3.40;;;1.97;;
4766;SDS011;2397;53.576;9.746;2023-04-25T12:56:40;6.27;;;2.40;;
4766;SDS011;2397;53.576;9.746;2023-04-25T12:59:08;5.70;;;2.27;;
4766;SDS011;2397;53.576;9.746;2023-04-25T13:01:35;6.30;;;2.20;;
4766;SDS011;2397;53.576;9.746;2023-04-25T13:04:03;12.63;;;2.07;;
4766;SDS011;2397;53.576;9.746;2023-04-25T13:06:30;5.17;;;2.20;;
4766;SDS011;2397;53.576;9.746;2023-04-25T13:08:57;4.77;;;1.90;;
4766;SDS011;2397;53.576;9.746;2023-04-25T13:11:24;3.40;;;2.60;;
4766;SDS011;2397;53.576;9.746;2023-04-25T13:13:50;3.53;;;2.00;;
4766;SDS011;2397;53.576;9.746;2023-04-25T13:16:18;4.57;;;2.00;;
4766;SDS011;2397;53.576;9.746;2023-04-25T13:18:47;3.53;;;1.90;;
4766;SDS011;2397;53.576;9.746;2023-04-25T13:21:14;2.03;;;1.83;;
4766;SDS011;2397;53.576;9.746;2023-04-25T13:23:41;2.97;;;1.60;;
4766;SDS011;2397;53.576;9.746;2023-04-25T13:26:09;5.23;;;2.30;;
4766;SDS011;2397;53.576;9.746;2023-04-25T13:28:35;6.73;;;2.17;;
4766;SDS011;2397;53.576;9.746;2023-04-25T13:31:02;4.37;;;1.80;;
4766;SDS011;2397;53.576;9.746;2023-04-25T13:33:28;4.67;;;1.90;;
4766;SDS011;2397;53.576;9.746;2023-04-25T13:35:55;5.87;;;1.97;;
4766;SDS011;2397;53.576;9.746;2023-04-25T13:38:23;4.90;;;2.20;;
4766;SDS011;2397;53.576;9.746;2023-04-25T13:40:51;2.57;;;1.73;;
4766;SDS011;2397;53.576;9.746;2023-04-25T13:43:21;2.87;;;2.00;;
4766;SDS011;2397;53.576;9.746;2023-04-25T13:45:49;3.73;;;1.60;;
4766;SDS011;2397;53.576;9.746;2023-04-25T13:48:17;6.83;;;2.33;;
4766;SDS011;2397;53.576;9.746;2023-04-25T13:50:44;5.10;;;1.90;;
4766;SDS011;2397;53.576;9.746;2023-04-25T13:53:11;5.30;;;2.20;;
4766;SDS011;2397;53.576;9.746;2023-04-25T13:55:38;8.17;;;2.60;;
4766;SDS011;2397;53.576;9.746;2023-04-25T13:58:05;3.33;;;2.33;;
4766;SDS011;2397;53.576;9.746;2023-04-25T14:00:36;11.47;;;3.07;;
4766;SDS011;2397;53.576;9.746;2023-04-25T14:03:08;7.20;;;1.87;;
4766;SDS011;2397;53.576;9.746;2023-04-25T14:05:35;3.70;;;2.20;;
4766;SDS011;2397;53.576;9.746;2023-04-25T14:08:05;7.50;;;2.43;;
4766;SDS011;2397;53.576;9.746;2023-04-25T14:10:35;4.10;;;1.67;;
4766;SDS011;2397;53.576;9.746;2023-04-25T14:13:02;7.30;;;2.10;;
4766;SDS011;2397;53.576;9.746;2023-04-25T14:15:30;10.00;;;2.87;;
4766;SDS011;2397;53.576;9.746;2023-04-25T14:17:58;8.07;;;1.83;;
4766;SDS011;2397;53.576;9.746;2023-04-25T14:20:25;11.50;;;2.97;;
4766;SDS011;2397;53.576;9.746;2023-04-25T14:22:52;3.20;;;2.33;;
4766;SDS011;2397;53.576;9.746;2023-04-25T14:25:20;8.60;;;2.83;;
4766;SDS011;2397;53.576;9.746;2023-04-25T14:27:47;4.30;;;1.77;;
4766;SDS011;2397;53.576;9.746;2023-04-25T14:30:20;7.03;;;1.70;;
4766;SDS011;2397;53.576;9.746;2023-04-25T14:32:50;3.97;;;2.37;;
4766;SDS011;2397;53.576;9.746;2023-04-25T14:35:17;5.60;;;1.97;;
4766;SDS011;2397;53.576;9.746;2023-04-25T14:37:43;6.87;;;2.13;;
4766;SDS011;2397;53.576;9.746;2023-04-25T14:40:11;5.00;;;1.60;;
4766;SDS011;2397;53.576;9.746;2023-04-25T14:42:39;7.43;;;2.10;;
4766;SDS011;2397;53.576;9.746;2023-04-25T14:45:06;4.67;;;1.97;;
4766;SDS011;2397;53.576;9.746;2023-04-25T14:47:35;7.23;;;3.40;;
4766;SDS011;2397;53.576;9.746;2023-04-25T14:50:02;7.70;;;2.70;;
4766;SDS011;2397;53.576;9.746;2023-04-25T14:52:30;5.70;;;2.10;;
4766;SDS011;2397;53.576;9.746;2023-04-25T14:54:57;9.97;;;2.40;;
4766;SDS011;2397;53.576;9.746;2023-04-25T14:57:26;5.33;;;1.90;;
4766;SDS011;2397;53.576;9.746;2023-04-25T14:59:52;5.87;;;2.10;;
4766;SDS011;2397;53.576;9.746;2023-04-25T15:02:19;8.50;;;2.50;;
4766;SDS011;2397;53.576;9.746;2023-04-25T15:04:45;4.80;;;1.90;;
4766;SDS011;2397;53.576;9.746;2023-04-25T15:07:12;2.90;;;1.53;;
4766;SDS011;2397;53.576;9.746;2023-04-25T15:09:40;5.30;;;2.10;;
4766;SDS011;2397;53.576;9.746;2023-04-25T15:12:07;18.17;;;3.03;;
4766;SDS011;2397;53.576;9.746;2023-04-25T15:14:34;7.10;;;2.60;;
4766;SDS011;2397;53.576;9.746;2023-04-25T15:17:00;4.40;;;2.00;;
4766;SDS011;2397;53.576;9.746;2023-04-25T15:19:27;6.27;;;2.50;;
4766;SDS011;2397;53.576;9.746;2023-04-25T15:21:54;11.57;;;2.63;;
4766;SDS011;2397;53.576;9.746;2023-04-25T15:24:21;6.47;;;1.87;;
4766;SDS011;2397;53.576;9.746;2023-04-25T15:26:48;7.57;;;2.30;;
4766;SDS011;2397;53.576;9.746;2023-04-25T15:29:14;6.93;;;2.20;;
4766;SDS011;2397;53.576;9.746;2023-04-25T15:31:41;4.23;;;2.50;;
4766;SDS011;2397;53.576;9.746;2023-04-25T15:34:08;6.63;;;2.33;;
4766;SDS011;2397;53.576;9.746;2023-04-25T15:36:34;3.40;;;2.10;;